Time;durP1;ratioP1;P1;durP2;ratioP2;P2;SDS_P1;SDS_P2;PMS_P1;PMS_P2;Temp;Humidity;BMP_temperature;BMP_pressure;BME280_temperature;BME280_humidity;BME280_pressure;Samples;Min_cycle;Max_cycle;Signal;HPM_P1;HPM_P2
2023/06/17 00:01:22;;;;;;;6.40;5.43;;;;;;;20.89;40.65;101557.69;5063154;28;20041;-63
2023/06/17 00:03:47;;;;;;;7.20;5.70;;;;;;;20.88;40.86;101554.03;5053364;28;20124;-62
2023/06/17 00:06:13;;;;;;;11.23;5.65;;;;;;;20.79;41.44;101559.53;5078056;28;20044;-62
2023/06/17 00:08:38;;;;;;;6.75;5.28;;;;;;;20.82;41.14;101550.44;5089084;28;20161;-63
2023/06/17 00:11:03;;;;;;;6.40;5.70;;;;;;;20.78;41.44;101552.19;5088103;28;20548;-63
2023/06/17 00:13:29;;;;;;;9.15;5.70;;;;;;;20.74;41.25;101548.31;5070214;28;20032;-62
2023/06/17 00:15:56;;;;;;;10.18;5.82;;;;;;;20.69;41.74;101545.56;5072133;28;20123;-62
2023/06/17 00:18:24;;;;;;;6.95;5.13;;;;;;;20.67;41.92;101538.53;5070449;28;20500;-62
2023/06/17 00:20:53;;;;;;;9.02;5.70;;;;;;;20.66;42.03;101531.22;5068315;28;20032;-62
2023/06/17 00:23:22;;;;;;;12.43;5.00;;;;;;;20.66;42.08;101528.41;5072377;28;20025;-63
2023/06/17 00:25:48;;;;;;;12.60;5.70;;;;;;;20.58;42.14;101535.56;5069625;28;20487;-62
2023/06/17 00:28:14;;;;;;;7.78;5.50;;;;;;;20.52;42.40;101529.19;5052054;28;20037;-63
2023/06/17 00:30:39;;;;;;;10.23;5.30;;;;;;;20.49;42.56;101529.78;5072560;28;20034;-62
2023/06/17 00:33:05;;;;;;;6.38;5.10;;;;;;;20.47;42.39;101522.72;5085278;28;20494;-62
2023/06/17 00:35:31;;;;;;;7.45;5.30;;;;;;;20.41;42.82;101529.59;5092438;28;20116;-62
2023/06/17 00:37:56;;;;;;;10.77;5.47;;;;;;;20.34;42.89;101525.16;5073938;28;20492;-62
2023/06/17 00:40:21;;;;;;;7.50;5.68;;;;;;;20.32;42.92;101526.63;5072702;28;20036;-62
2023/06/17 00:42:46;;;;;;;7.43;5.40;;;;;;;20.34;43.00;101529.97;5064084;28;20446;-63
2023/06/17 00:45:15;;;;;;;8.32;6.15;;;;;;;20.30;43.07;101526.06;5070311;28;20067;-63
2023/06/17 00:47:41;;;;;;;10.13;6.50;;;;;;;20.23;43.52;101526.44;5072629;28;20444;-62
2023/06/17 00:50:09;;;;;;;8.63;6.72;;;;;;;20.19;43.61;101528.19;5072111;28;20040;-62
2023/06/17 00:52:36;;;;;;;10.32;6.30;;;;;;;20.20;43.60;101529.00;5072811;28;20033;-62
2023/06/17 00:55:01;;;;;;;7.53;5.95;;;;;;;20.18;43.20;101529.31;5071570;28;20119;-63
2023/06/17 00:57:28;;;;;;;11.20;5.53;;;;;;;20.21;43.22;101520.28;5072599;28;20108;-63
2023/06/17 00:59:54;;;;;;;10.05;5.85;;;;;;;20.13;43.26;101520.09;5066778;28;20047;-62
2023/06/17 01:02:19;;;;;;;7.03;5.85;;;;;;;20.08;43.57;101516.22;5072347;28;20028;-63
2023/06/17 01:04:46;;;;;;;9.38;6.10;;;;;;;20.04;43.78;101525.53;5071422;28;20028;-62
2023/06/17 01:07:40;;;;;;;10.32;6.22;;;;;;;20.07;43.22;101527.78;5076220;28;20761;-62
2023/06/17 01:10:12;;;;;;;7.25;5.93;;;;;;;19.92;43.92;101527.94;5071373;28;20040;-63
2023/06/17 01:12:39;;;;;;;8.95;5.95;;;;;;;19.90;44.03;101527.44;5071719;28;20547;-63
2023/06/17 01:15:05;;;;;;;8.40;6.47;;;;;;;19.91;43.85;101529.09;5068636;28;20044;-62
2023/06/17 01:17:32;;;;;;;6.78;5.72;;;;;;;19.87;44.15;101520.41;5067327;28;20037;-63
2023/06/17 01:19:59;;;;;;;9.55;6.28;;;;;;;19.75;44.35;101519.97;5072412;28;20024;-63
2023/06/17 01:22:26;;;;;;;9.65;6.28;;;;;;;19.75;44.51;101515.19;5071645;28;20036;-63
2023/06/17 01:24:52;;;;;;;10.02;6.38;;;;;;;19.74;44.60;101513.50;5070632;28;20025;-63
2023/06/17 01:27:17;;;;;;;9.10;6.03;;;;;;;19.70;44.95;101522.88;5075965;28;20042;-63
2023/06/17 01:29:46;;;;;;;8.82;6.35;;;;;;;19.63;44.85;101526.03;5071790;28;20063;-63
2023/06/17 01:32:12;;;;;;;8.68;7.07;;;;;;;19.52;45.23;101514.00;5068464;28;20032;-63
2023/06/17 01:34:48;;;;;;;11.00;6.75;;;;;;;19.53;45.41;101517.63;5070447;28;20036;-63
2023/06/17 01:37:37;;;;;;;7.57;6.65;;;;;;;19.51;45.09;101514.28;5060187;28;20028;-62
2023/06/17 01:40:06;;;;;;;7.55;6.45;;;;;;;19.44;45.05;101514.63;5050681;28;20075;-63
2023/06/17 01:42:35;;;;;;;9.55;6.53;;;;;;;19.43;45.19;101517.75;5072433;28;20032;-62
2023/06/17 01:45:03;;;;;;;8.07;6.50;;;;;;;19.40;45.19;101515.53;5071187;28;20032;-63
2023/06/17 01:47:29;;;;;;;8.27;6.68;;;;;;;19.35;45.12;101514.44;5088675;28;20031;-63
2023/06/17 01:49:59;;;;;;;8.27;6.53;;;;;;;19.33;45.23;101515.88;5091614;28;20027;-63
2023/06/17 01:52:25;;;;;;;8.40;6.90;;;;;;;19.35;45.22;101511.63;5066719;28;20028;-63
2023/06/17 01:54:51;;;;;;;7.03;6.30;;;;;;;19.31;45.44;101515.34;5069811;28;20462;-62
2023/06/17 01:57:16;;;;;;;7.13;6.50;;;;;;;19.27;45.21;101511.44;5071423;28;20111;-62
2023/06/17 01:59:42;;;;;;;7.07;5.90;;;;;;;19.29;45.81;101515.63;5070492;28;20028;-63
2023/06/17 02:02:08;;;;;;;8.18;6.43;;;;;;;19.26;45.90;101512.59;5071751;28;20029;-63
2023/06/17 02:04:33;;;;;;;7.15;6.45;;;;;;;19.24;45.82;101509.22;5070965;28;20028;-63
2023/06/17 02:06:59;;;;;;;10.85;6.53;;;;;;;19.19;45.87;101506.44;5069776;28;20059;-62
2023/06/17 02:09:24;;;;;;;10.52;6.93;;;;;;;19.09;46.22;101513.00;5063744;28;20381;-63
2023/06/17 02:11:49;;;;;;;7.32;6.30;;;;;;;19.15;46.20;101506.19;5071527;28;20028;-63
2023/06/17 02:14:15;;;;;;;9.32;6.28;;;;;;;19.11;46.47;101502.28;5073385;28;20040;-63
2023/06/17 02:16:44;;;;;;;6.47;5.88;;;;;;;19.01;46.68;101497.56;5066887;28;20030;-63
2023/06/17 02:19:09;;;;;;;7.13;6.22;;;;;;;19.04;46.45;101494.19;5064307;28;20025;-63
2023/06/17 02:21:34;;;;;;;8.75;6.70;;;;;;;19.02;46.62;101495.59;5069912;28;20082;-63
2023/06/17 02:24:00;;;;;;;7.63;6.13;;;;;;;18.99;46.49;101502.69;5070401;28;20020;-63
2023/06/17 02:26:25;;;;;;;7.88;6.53;;;;;;;18.99;46.30;101494.25;5070606;28;20020;-63
2023/06/17 02:28:50;;;;;;;7.00;6.15;;;;;;;18.97;46.81;101495.66;5069816;28;20527;-63
2023/06/17 02:31:16;;;;;;;8.13;5.47;;;;;;;18.95;46.99;101498.78;5070860;28;20028;-63
2023/06/17 02:33:41;;;;;;;7.43;5.72;;;;;;;18.89;47.07;101485.88;5066410;28;20047;-63
2023/06/17 02:36:06;;;;;;;8.30;5.60;;;;;;;18.85;47.11;101491.25;5053138;28;20108;-63
2023/06/17 02:38:32;;;;;;;6.35;5.75;;;;;;;18.85;46.99;101485.63;5050543;28;20072;-63
2023/06/17 02:40:58;;;;;;;7.47;5.95;;;;;;;18.86;46.91;101492.94;5050501;28;20036;-63
2023/06/17 02:43:23;;;;;;;6.68;6.07;;;;;;;18.81;46.89;101483.69;5050575;28;20037;-63
2023/06/17 02:45:48;;;;;;;8.60;5.97;;;;;;;18.78;47.07;101479.47;5071248;28;20047;-63
2023/06/17 02:48:14;;;;;;;7.97;5.32;;;;;;;18.79;47.79;101486.81;5069592;28;20050;-63
2023/06/17 02:50:40;;;;;;;9.63;6.57;;;;;;;18.74;47.26;101481.19;5069908;28;20093;-63
2023/06/17 02:53:07;;;;;;;6.80;6.10;;;;;;;18.64;47.24;101481.25;5065998;28;20078;-63
2023/06/17 02:55:33;;;;;;;7.10;6.13;;;;;;;18.62;47.46;101489.13;5072107;28;20044;-63
2023/06/17 02:57:58;;;;;;;7.05;6.18;;;;;;;18.56;47.52;101481.88;5089660;28;20055;-63
2023/06/17 03:00:23;;;;;;;9.32;6.20;;;;;;;18.53;47.72;101482.47;5083442;28;20021;-63
2023/06/17 03:02:49;;;;;;;11.00;6.68;;;;;;;18.48;47.83;101479.69;5069707;28;20028;-63
2023/06/17 03:05:16;;;;;;;10.25;6.90;;;;;;;18.46;47.56;101482.78;5068982;28;20028;-63
2023/06/17 03:07:42;;;;;;;7.30;6.45;;;;;;;18.46;47.76;101477.16;5065444;28;20020;-63
2023/06/17 03:10:07;;;;;;;7.47;5.90;;;;;;;18.43;47.58;101476.88;5069417;28;20025;-64
2023/06/17 03:12:33;;;;;;;8.75;6.40;;;;;;;18.41;48.12;101474.38;5069639;28;20079;-63
2023/06/17 03:14:58;;;;;;;7.05;6.45;;;;;;;18.40;48.04;101478.34;5069356;28;20058;-62
2023/06/17 03:17:27;;;;;;;12.48;6.63;;;;;;;18.36;48.39;101474.41;5063666;28;20028;-62
2023/06/17 03:19:52;;;;;;;9.50;6.90;;;;;;;18.31;48.34;101472.50;5068384;28;20024;-63
2023/06/17 03:22:18;;;;;;;8.20;6.88;;;;;;;18.28;48.52;101473.06;5059335;28;20028;-63
2023/06/17 03:24:43;;;;;;;9.73;7.03;;;;;;;18.30;48.38;101467.97;5058154;28;20078;-64
2023/06/17 03:27:08;;;;;;;8.48;7.13;;;;;;;18.31;48.05;101478.09;5070265;28;20025;-64
2023/06/17 03:29:37;;;;;;;7.68;6.97;;;;;;;18.27;48.53;101470.53;5066317;28;20373;-63
2023/06/17 03:32:02;;;;;;;8.38;7.47;;;;;;;18.24;48.64;101465.50;5068543;28;20570;-64
2023/06/17 03:34:28;;;;;;;9.80;7.50;;;;;;;18.24;48.71;101468.31;5069834;28;20020;-63
2023/06/17 03:36:53;;;;;;;7.70;7.00;;;;;;;18.21;48.77;101466.91;5069493;28;20056;-63
2023/06/17 03:39:18;;;;;;;8.10;7.03;;;;;;;18.20;48.59;101473.66;5069211;28;20028;-64
2023/06/17 03:41:44;;;;;;;7.30;6.60;;;;;;;18.19;48.62;101466.34;5070117;28;20040;-63
2023/06/17 03:44:10;;;;;;;8.27;7.03;;;;;;;18.13;48.64;101467.53;5067268;28;20032;-64
2023/06/17 03:46:35;;;;;;;13.95;7.03;;;;;;;18.09;48.89;101461.63;5068156;28;20055;-63
2023/06/17 03:49:00;;;;;;;7.72;7.03;;;;;;;18.04;48.89;101466.47;5069713;28;20070;-63
2023/06/17 03:51:26;;;;;;;9.32;7.18;;;;;;;18.03;49.19;101461.94;5069606;28;20020;-63
2023/06/17 03:53:51;;;;;;;9.30;6.70;;;;;;;18.02;49.07;101460.28;5069075;28;20559;-64
2023/06/17 03:56:16;;;;;;;8.00;6.82;;;;;;;18.03;49.05;101459.13;5069714;28;20082;-64
2023/06/17 03:58:42;;;;;;;11.18;7.38;;;;;;;18.01;49.28;101458.59;5071800;28;20017;-62
2023/06/17 04:01:07;;;;;;;10.73;7.15;;;;;;;17.95;49.72;101456.94;5078447;28;20036;-62
2023/06/17 04:03:34;;;;;;;8.18;7.38;;;;;;;17.95;49.63;101456.94;5065445;28;20435;-62
2023/06/17 04:06:00;;;;;;;11.02;6.80;;;;;;;17.94;49.91;101456.09;5069932;28;20032;-62
2023/06/17 04:08:27;;;;;;;8.32;7.43;;;;;;;17.94;50.14;101466.50;5068739;28;20552;-62
2023/06/17 04:10:52;;;;;;;8.57;7.68;;;;;;;17.95;49.92;101454.13;5069823;28;20508;-62
2023/06/17 04:13:17;;;;;;;10.30;7.07;;;;;;;17.92;49.93;101455.56;5068350;28;20035;-62
2023/06/17 04:15:44;;;;;;;9.20;7.20;;;;;;;17.95;49.88;101462.53;5068473;28;20052;-62
2023/06/17 04:18:10;;;;;;;10.35;8.13;;;;;;;17.93;49.92;101462.84;5071164;28;20040;-62
2023/06/17 04:20:35;;;;;;;11.60;9.50;;;;;;;17.93;49.77;101457.22;5075329;28;20020;-62
2023/06/17 04:23:01;;;;;;;13.63;8.30;;;;;;;17.92;50.16;101463.97;5072670;28;20060;-62
2023/06/17 04:25:27;;;;;;;10.23;9.18;;;;;;;18.00;49.70;101463.38;5073030;28;20036;-62
2023/06/17 04:27:53;;;;;;;10.82;8.98;;;;;;;17.95;49.88;101470.97;5072431;28;20491;-62
2023/06/17 04:30:19;;;;;;;11.80;9.35;;;;;;;17.93;50.05;101468.47;5073646;28;20040;-62
2023/06/17 04:32:45;;;;;;;13.93;9.85;;;;;;;17.89;50.46;101465.38;5073314;28;20484;-62
2023/06/17 04:35:10;;;;;;;13.00;10.05;;;;;;;17.87;50.98;101470.44;5072401;28;20105;-62
2023/06/17 04:37:36;;;;;;;15.63;10.55;;;;;;;17.87;51.37;101473.25;5064803;28;20086;-62
2023/06/17 04:40:07;;;;;;;14.38;10.85;;;;;;;17.84;51.29;101470.16;5073133;28;20089;-62
2023/06/17 04:42:33;;;;;;;13.93;10.93;;;;;;;17.89;51.07;101471.00;5072351;28;20044;-62
2023/06/17 04:44:59;;;;;;;12.63;11.30;;;;;;;17.93;51.50;101468.47;5073993;28;20032;-62
2023/06/17 04:47:24;;;;;;;12.70;11.43;;;;;;;17.97;51.00;101478.00;5066689;28;20036;-63
2023/06/17 04:49:51;;;;;;;13.63;12.23;;;;;;;17.96;50.85;101479.13;5071196;28;20075;-62
2023/06/17 04:52:19;;;;;;;17.55;12.82;;;;;;;17.97;50.71;101475.19;5068837;28;20373;-62
2023/06/17 04:54:45;;;;;;;14.68;13.13;;;;;;;17.91;51.62;101471.53;5062163;28;20017;-63
2023/06/17 04:57:11;;;;;;;12.85;9.07;;;;;;;18.17;53.48;101477.06;5064185;28;20124;-63
2023/06/17 04:59:37;;;;;;;12.73;11.25;;;;;;;18.30;52.73;101476.41;5071172;28;20103;-63
2023/06/17 05:02:03;;;;;;;14.18;12.77;;;;;;;18.44;51.69;101481.41;5055126;28;20147;-62
2023/06/17 05:04:28;;;;;;;14.40;12.90;;;;;;;18.46;50.73;101476.31;5051399;28;20036;-64
2023/06/17 05:06:53;;;;;;;12.10;11.00;;;;;;;18.66;50.59;101484.59;5080472;28;20029;-63
2023/06/17 05:09:19;;;;;;;13.73;12.15;;;;;;;18.76;50.63;101484.56;5072767;28;20062;-63
2023/06/17 05:11:45;;;;;;;16.67;14.95;;;;;;;18.81;50.42;101487.34;5071217;28;20509;-62
2023/06/17 05:14:10;;;;;;;16.08;14.48;;;;;;;18.88;50.40;101499.09;5072112;28;20067;-64
2023/06/17 05:16:35;;;;;;;16.00;14.35;;;;;;;18.97;50.52;101490.88;5071029;28;20052;-63
2023/06/17 05:19:01;;;;;;;17.65;15.85;;;;;;;19.02;50.03;101489.97;5070912;28;20838;-64
2023/06/17 05:21:27;;;;;;;18.70;15.48;;;;;;;19.12;49.43;101487.09;5079335;28;20429;-63
2023/06/17 05:23:52;;;;;;;18.08;16.33;;;;;;;19.16;49.19;101493.78;5075924;28;20066;-63
2023/06/17 05:26:18;;;;;;;19.05;17.08;;;;;;;19.16;49.59;101496.63;5071599;28;20697;-63
2023/06/17 05:28:43;;;;;;;17.80;15.93;;;;;;;19.27;49.56;101492.56;5070882;28;20117;-64
2023/06/17 05:31:09;;;;;;;17.70;15.95;;;;;;;19.34;49.29;101495.88;5070514;28;20071;-65
2023/06/17 05:33:35;;;;;;;16.40;14.82;;;;;;;19.41;49.29;101487.06;5071809;28;20020;-64
2023/06/17 05:36:00;;;;;;;17.25;15.50;;;;;;;19.50;48.79;101487.28;5071086;28;20020;-63
2023/06/17 05:38:26;;;;;;;17.13;15.43;;;;;;;19.56;49.04;101488.88;5071367;28;20029;-64
2023/06/17 05:40:52;;;;;;;15.57;13.98;;;;;;;19.67;48.87;101489.66;5075438;28;20112;-64
2023/06/17 05:43:17;;;;;;;14.77;13.18;;;;;;;19.74;48.80;101488.16;5058302;28;20107;-64
2023/06/17 05:45:42;;;;;;;16.85;14.45;;;;;;;19.77;48.74;101484.75;5070967;28;20024;-64
2023/06/17 05:48:08;;;;;;;14.20;12.90;;;;;;;19.89;48.67;101483.50;5076742;28;20464;-62
2023/06/17 05:50:33;;;;;;;7.68;6.50;;;;;;;20.03;49.01;101488.06;5070985;28;20033;-62
2023/06/17 05:52:58;;;;;;;7.22;6.53;;;;;;;20.15;48.96;101484.00;5070442;28;20021;-63
2023/06/17 05:55:23;;;;;;;9.30;7.07;;;;;;;20.23;48.42;101495.41;5070435;28;20036;-63
2023/06/17 05:57:51;;;;;;;8.10;6.75;;;;;;;20.37;48.19;101494.69;5068169;28;20051;-63
2023/06/17 06:00:17;;;;;;;10.10;8.85;;;;;;;20.41;48.09;101492.94;5062460;28;20033;-63
2023/06/17 06:02:42;;;;;;;10.73;9.55;;;;;;;20.47;48.11;101486.91;5067151;28;20074;-63
2023/06/17 06:05:08;;;;;;;10.35;9.38;;;;;;;20.52;47.70;101489.69;5070813;28;20028;-63
2023/06/17 06:07:33;;;;;;;12.23;9.27;;;;;;;20.56;47.75;101484.28;5070505;28;20502;-63
2023/06/17 06:09:58;;;;;;;11.63;9.93;;;;;;;20.63;48.01;101484.72;5070644;28;20079;-62
2023/06/17 06:12:24;;;;;;;10.57;9.48;;;;;;;20.67;47.69;101485.81;5070942;28;20097;-63
2023/06/17 06:14:51;;;;;;;11.60;10.40;;;;;;;20.71;47.81;101477.56;5069673;28;20076;-63
2023/06/17 06:17:16;;;;;;;12.95;10.38;;;;;;;;;;5070223;28;20023;-62
2023/06/17 06:19:41;;;;;;;13.65;9.60;;;;;;;20.87;47.35;101490.28;5062019;28;20389;-62
2023/06/17 06:22:07;;;;;;;12.25;10.70;;;;;;;20.88;47.42;101479.84;5070927;28;20028;-62
2023/06/17 06:24:32;;;;;;;13.10;11.68;;;;;;;20.89;47.83;101481.50;5079660;28;20020;-62
2023/06/17 06:26:57;;;;;;;14.88;11.07;;;;;;;20.94;47.61;101479.44;5090220;28;20034;-63
2023/06/17 06:29:22;;;;;;;11.75;10.55;;;;;;;20.99;47.45;101481.34;5091064;28;20085;-62
2023/06/17 06:31:48;;;;;;;12.23;9.73;;;;;;;21.03;47.27;101473.94;5083284;28;20034;-63
2023/06/17 06:34:13;;;;;;;13.77;10.43;;;;;;;21.07;47.42;101473.00;5068679;28;20024;-63
2023/06/17 06:36:38;;;;;;;14.82;10.48;;;;;;;21.14;47.02;101474.56;5068451;28;20032;-62
2023/06/17 06:39:03;;;;;;;13.73;11.63;;;;;;;21.11;46.83;101484.53;5064973;28;20496;-63
2023/06/17 06:41:29;;;;;;;12.88;10.30;;;;;;;21.19;46.53;101483.81;5069470;28;20024;-63
2023/06/17 06:43:54;;;;;;;13.88;10.05;;;;;;;21.26;46.71;101480.56;5070361;28;20070;-62
2023/06/17 06:46:19;;;;;;;12.45;9.60;;;;;;;21.31;46.64;101483.31;5070362;28;20728;-63
2023/06/17 06:48:45;;;;;;;15.98;10.77;;;;;;;21.36;46.50;101485.25;5069576;28;20434;-62
2023/06/17 06:51:10;;;;;;;11.23;9.20;;;;;;;21.43;46.32;101480.84;5069879;28;20050;-63
2023/06/17 06:53:35;;;;;;;12.00;10.60;;;;;;;21.46;45.69;101482.22;5066435;28;20047;-63
2023/06/17 06:56:01;;;;;;;11.90;10.27;;;;;;;21.47;45.59;101489.56;5066398;28;20037;-62
2023/06/17 06:58:26;;;;;;;12.98;10.93;;;;;;;21.56;45.61;101484.84;5069971;28;20463;-62
2023/06/17 07:00:51;;;;;;;11.68;10.52;;;;;;;21.59;45.44;101489.88;5062717;28;20029;-63
2023/06/17 07:03:17;;;;;;;13.48;12.00;;;;;;;21.61;45.27;101486.72;5069294;28;20035;-63
2023/06/17 07:05:43;;;;;;;12.45;9.77;;;;;;;21.68;45.56;101485.16;5067430;28;20028;-63
2023/06/17 07:08:08;;;;;;;12.88;10.18;;;;;;;21.77;44.65;101477.66;5056305;28;20029;-63
2023/06/17 07:10:39;;;;;;;13.88;8.70;;;;;;;21.80;44.57;101482.66;5064142;28;20170;-63
2023/06/17 07:13:04;;;;;;;16.30;14.65;;;;;;;21.77;44.03;101483.31;5070237;28;20048;-63
2023/06/17 07:15:29;;;;;;;10.27;9.20;;;;;;;21.88;44.54;101483.91;5069890;28;20040;-63
2023/06/17 07:17:55;;;;;;;10.20;9.20;;;;;;;21.93;43.63;101478.19;5068714;28;20069;-63
2023/06/17 07:20:20;;;;;;;9.15;7.30;;;;;;;22.03;43.75;101482.75;5067305;28;20028;-62
2023/06/17 07:22:45;;;;;;;9.25;8.25;;;;;;;22.10;44.08;101483.19;5060646;28;20078;-63
2023/06/17 07:25:11;;;;;;;9.90;7.90;;;;;;;22.14;43.99;101484.25;5058395;28;20575;-63
2023/06/17 07:27:36;;;;;;;10.13;7.40;;;;;;;22.20;43.72;101488.63;5061235;28;20120;-63
2023/06/17 07:30:01;;;;;;;19.80;14.05;;;;;;;22.24;44.97;101480.34;5065788;28;20399;-62
2023/06/17 07:32:27;;;;;;;13.55;12.15;;;;;;;22.22;44.58;101482.69;5059282;28;20028;-63
2023/06/17 07:34:53;;;;;;;10.95;8.57;;;;;;;22.33;44.33;101484.13;5068082;28;20064;-63
2023/06/17 07:37:19;;;;;;;15.38;13.48;;;;;;;22.27;43.28;101474.91;5064321;28;20104;-62
2023/06/17 07:39:46;;;;;;;15.52;10.45;;;;;;;22.33;44.36;101480.47;5067374;28;20024;-63
2023/06/17 07:42:13;;;;;;;11.27;9.93;;;;;;;22.41;43.97;101489.03;5062846;28;20043;-62
2023/06/17 07:44:38;;;;;;;13.18;11.60;;;;;;;22.45;41.88;101483.56;5054989;28;20404;-63
2023/06/17 07:47:04;;;;;;;11.02;9.93;;;;;;;22.57;41.32;101481.03;5076821;28;20033;-64
2023/06/17 07:49:29;;;;;;;12.88;8.60;;;;;;;22.66;43.27;101476.25;5054328;28;20083;-63
2023/06/17 07:51:55;;;;;;;9.85;7.80;;;;;;;22.69;42.76;101472.81;5054441;28;20021;-63
2023/06/17 07:54:20;;;;;;;14.68;12.13;;;;;;;22.75;41.63;101484.81;5071991;28;20035;-62
2023/06/17 07:56:46;;;;;;;8.63;7.00;;;;;;;22.81;42.05;101477.06;5072435;28;20028;-63
2023/06/17 07:59:11;;;;;;;12.38;8.68;;;;;;;22.87;40.30;101470.09;5072520;28;20438;-63
2023/06/17 08:01:37;;;;;;;9.75;8.75;;;;;;;22.94;36.90;101476.19;5073194;28;20029;-63
2023/06/17 08:04:02;;;;;;;8.57;7.68;;;;;;;22.98;35.87;101466.72;5066337;28;20032;-63
2023/06/17 08:06:29;;;;;;;8.27;6.78;;;;;;;23.05;36.16;101460.59;5071575;28;20128;-63
2023/06/17 08:08:54;;;;;;;9.43;7.65;;;;;;;23.10;35.02;101468.97;5080128;28;20039;-64
2023/06/17 08:11:20;;;;;;;8.65;5.93;;;;;;;23.14;35.56;101469.16;5082482;28;20454;-64
2023/06/17 08:13:45;;;;;;;7.38;6.68;;;;;;;23.19;35.84;101466.22;5084191;28;20070;-64
2023/06/17 08:16:10;;;;;;;9.60;8.40;;;;;;;23.24;35.76;101469.72;5093183;28;20044;-64
2023/06/17 08:18:35;;;;;;;9.77;7.63;;;;;;;23.34;34.99;101467.78;5087626;28;20043;-64
2023/06/17 08:21:01;;;;;;;6.95;6.13;;;;;;;23.34;38.19;101464.94;5070403;28;20032;-64
2023/06/17 08:23:27;;;;;;;10.23;6.20;;;;;;;23.42;36.05;101455.66;5071924;28;20147;-64
2023/06/17 08:25:53;;;;;;;7.85;7.05;;;;;;;23.53;34.66;101465.53;5072943;28;20893;-64
2023/06/17 08:28:18;;;;;;;9.75;8.57;;;;;;;23.50;36.08;101460.53;5058148;28;20052;-65
2023/06/17 08:30:43;;;;;;;19.30;9.85;;;;;;;23.51;36.41;101465.06;5052494;28;20160;-64
2023/06/17 08:33:09;;;;;;;10.73;9.63;;;;;;;23.62;35.63;101460.78;5052478;28;20057;-64
2023/06/17 08:35:34;;;;;;;10.75;9.70;;;;;;;23.75;36.11;101456.19;5052027;28;20033;-64
2023/06/17 08:38:01;;;;;;;10.05;7.65;;;;;;;23.67;36.25;101452.16;5053850;28;20031;-64
2023/06/17 08:40:27;;;;;;;9.88;7.93;;;;;;;23.72;33.96;101462.50;5068265;28;20098;-64
2023/06/17 08:43:03;;;;;;;8.43;6.68;;;;;;;23.76;33.93;101455.84;5071135;28;20067;-64
2023/06/17 08:45:29;;;;;;;10.10;6.78;;;;;;;23.80;33.86;101458.03;5072317;28;20029;-64
2023/06/17 08:47:55;;;;;;;6.65;5.40;;;;;;;23.94;33.53;101458.75;5070845;28;20589;-64
2023/06/17 08:50:21;;;;;;;7.60;5.93;;;;;;;23.93;33.70;101459.88;5072111;28;20029;-64
2023/06/17 08:52:48;;;;;;;9.50;6.30;;;;;;;24.00;33.97;101448.91;5072646;28;20024;-63
2023/06/17 08:55:13;;;;;;;6.78;6.07;;;;;;;24.05;33.53;101462.09;5063272;28;20032;-62
2023/06/17 08:57:42;;;;;;;8.13;5.57;;;;;;;24.05;34.27;101456.41;5052279;28;20116;-62
2023/06/17 09:00:10;;;;;;;7.47;6.25;;;;;;;24.09;34.31;101452.63;5052980;28;20928;-62
2023/06/17 09:02:37;;;;;;;8.00;5.53;;;;;;;24.21;34.21;101449.97;5077994;28;20028;-64
2023/06/17 09:05:02;;;;;;;8.13;6.85;;;;;;;24.25;34.84;101453.81;5068544;28;20024;-64
2023/06/17 09:07:28;;;;;;;7.63;6.82;;;;;;;24.35;35.09;101446.13;5082092;28;20039;-64
2023/06/17 09:09:56;;;;;;;9.60;6.70;;;;;;;24.34;34.51;101453.81;5077181;28;20143;-64
2023/06/17 09:12:23;;;;;;;8.27;5.97;;;;;;;24.41;35.58;101453.38;5071886;28;20046;-64
2023/06/17 09:14:48;;;;;;;9.45;5.50;;;;;;;24.44;35.21;101449.84;5072181;28;20048;-65
2023/06/17 09:17:31;;;;;;;9.52;5.50;;;;;;;24.51;35.38;101452.19;5071011;28;21954;-65
2023/06/17 09:20:08;;;;;;;6.90;4.43;;;;;;;24.70;35.05;101449.84;5062593;28;20033;-64
2023/06/17 09:22:33;;;;;;;9.15;5.50;;;;;;;24.71;35.10;101452.34;5068790;28;20524;-63
2023/06/17 09:24:59;;;;;;;10.05;5.68;;;;;;;24.69;33.78;101448.19;5086365;28;20036;-64
2023/06/17 09:27:25;;;;;;;6.32;4.97;;;;;;;24.67;33.48;101456.19;5073816;28;20043;-64
2023/06/17 09:30:13;;;;;;;6.25;4.68;;;;;;;24.71;33.87;101451.50;5067700;28;20040;-63
2023/06/17 09:32:40;;;;;;;7.45;4.90;;;;;;;24.71;33.16;101452.34;5073395;28;20126;-63
2023/06/17 09:35:11;;;;;;;8.15;5.25;;;;;;;24.83;33.01;101448.00;5070610;28;20116;-64
2023/06/17 09:37:37;;;;;;;6.37;5.07;;;;;;;24.88;33.60;101447.84;5070883;28;20527;-64
2023/06/17 09:40:05;;;;;;;7.03;5.20;;;;;;;24.90;33.07;101448.34;5072310;28;20025;-64
2023/06/17 09:42:31;;;;;;;6.28;5.57;;;;;;;25.12;33.25;101442.47;5077544;28;20034;-63
2023/06/17 09:44:56;;;;;;;8.45;5.75;;;;;;;25.05;33.04;101447.81;5063294;28;20020;-64
2023/06/17 09:47:32;;;;;;;7.57;4.85;;;;;;;25.15;33.00;101449.47;5071927;28;20028;-64
2023/06/17 09:50:01;;;;;;;8.38;5.30;;;;;;;25.07;33.33;101448.28;5069037;28;20077;-61
2023/06/17 09:52:30;;;;;;;7.75;5.00;;;;;;;25.09;32.91;101443.16;5077073;28;20405;-62
2023/06/17 09:54:57;;;;;;;5.72;4.40;;;;;;;25.14;32.46;101448.66;5068789;28;20484;-63
2023/06/17 09:57:26;;;;;;;5.45;4.28;;;;;;;25.27;32.22;101437.41;5074948;28;20024;-63
2023/06/17 09:59:55;;;;;;;5.03;4.53;;;;;;;25.23;32.25;101440.13;5075274;28;20035;-63
2023/06/17 10:02:20;;;;;;;5.88;4.47;;;;;;;25.31;31.95;101438.41;5065615;28;20385;-64
2023/06/17 10:04:46;;;;;;;7.15;4.53;;;;;;;25.40;31.64;101434.38;5069013;28;20047;-63
2023/06/17 10:07:12;;;;;;;5.80;4.22;;;;;;;25.45;32.04;101444.72;5066790;28;20031;-63
2023/06/17 10:09:38;;;;;;;7.05;4.63;;;;;;;25.42;31.81;101436.88;5078827;28;20476;-64
2023/06/17 10:12:11;;;;;;;5.97;4.35;;;;;;;25.49;31.61;101425.81;5090166;28;20483;-61
2023/06/17 10:14:38;;;;;;;5.13;4.43;;;;;;;25.61;32.28;101428.75;5090402;28;20046;-61
2023/06/17 10:17:07;;;;;;;6.55;4.30;;;;;;;25.71;31.74;101434.06;5068467;28;20016;-63
2023/06/17 10:19:36;;;;;;;6.50;4.32;;;;;;;25.79;31.85;101428.72;5065616;28;20033;-64
2023/06/17 10:22:06;;;;;;;7.68;4.53;;;;;;;25.71;31.43;101419.88;5071145;28;20060;-64
2023/06/17 10:24:32;;;;;;;6.32;4.53;;;;;;;25.75;31.13;101424.88;5070572;28;20411;-63
2023/06/17 10:27:03;;;;;;;9.13;4.25;;;;;;;25.89;30.80;101422.63;5071432;28;20480;-63
2023/06/17 10:29:28;;;;;;;7.07;4.25;;;;;;;25.96;31.48;101417.25;5090596;28;20031;-64
2023/06/17 10:31:54;;;;;;;5.35;4.10;;;;;;;26.09;31.42;101423.84;5090660;28;20110;-65
2023/06/17 10:34:22;;;;;;;8.77;4.55;;;;;;;26.04;31.52;101424.06;5077927;28;20477;-62
2023/06/17 10:36:57;;;;;;;6.68;4.68;;;;;;;26.02;31.08;101420.72;5069802;28;20127;-64
2023/06/17 10:39:22;;;;;;;4.85;4.13;;;;;;;25.99;31.16;101410.88;5057513;28;20081;-63
2023/06/17 10:41:49;;;;;;;5.20;4.53;;;;;;;26.04;31.48;101418.38;5079383;28;20028;-64
2023/06/17 10:44:26;;;;;;;6.25;4.72;;;;;;;26.05;31.52;101420.03;5069927;28;20025;-63
2023/06/17 10:46:51;;;;;;;5.35;4.15;;;;;;;26.01;30.44;101411.34;5070181;28;20051;-63
2023/06/17 10:49:18;;;;;;;6.20;3.95;;;;;;;26.08;31.08;101416.50;5069883;28;20093;-64
2023/06/17 10:52:10;;;;;;;5.97;4.18;;;;;;;26.12;31.21;101404.06;5076885;28;20031;-65
2023/06/17 10:54:44;;;;;;;6.32;4.15;;;;;;;26.16;31.92;101407.88;5072226;28;20037;-64
2023/06/17 10:57:09;;;;;;;5.63;4.70;;;;;;;26.17;30.81;101411.56;5064637;28;20048;-63
2023/06/17 10:59:35;;;;;;;8.60;4.82;;;;;;;26.16;31.04;101404.22;5067530;28;20158;-64
2023/06/17 11:02:08;;;;;;;6.07;4.60;;;;;;;26.17;31.81;101398.19;5069815;28;20037;-64
2023/06/17 11:04:40;;;;;;;6.80;4.78;;;;;;;26.16;31.11;101401.38;5069708;28;20072;-65
2023/06/17 11:07:06;;;;;;;6.70;4.30;;;;;;;26.16;31.00;101407.88;5070503;28;20796;-65
2023/06/17 11:09:33;;;;;;;7.70;4.68;;;;;;;26.23;31.57;101400.84;5069163;28;20499;-65
2023/06/17 11:12:00;;;;;;;4.50;4.10;;;;;;;26.22;31.41;101393.47;5069322;28;20067;-64
2023/06/17 11:14:28;;;;;;;6.50;4.38;;;;;;;26.29;31.12;101391.75;5066990;28;20119;-65
2023/06/17 11:16:53;;;;;;;6.53;4.50;;;;;;;26.22;31.34;101390.63;5069988;28;20115;-65
2023/06/17 11:19:18;;;;;;;5.70;4.30;;;;;;;26.29;31.25;101393.72;5075764;28;20605;-65